Virgin Gorda, British Virgin Islands

10:20 AM AST on February 23, 2017 (GMT -0400)
Colison Point, Virgin Gorda | | Change Station

Elev 165 ft 18.46 °N, 64.44 °W | Updated 8 seconds ago

Partly Cloudy
Partly Cloudy
78.6 °F
Feels Like 81 °F
N
6.9
Wind Variable Wind from East
Gusts 12.5 mph

Today
High -- | Low -- °F
--% Chance of Precip.
Yesterday
High -- | Low -- °F
Precip. -- in
Pressure 29.95 in
Visibility 6.2 miles
Clouds Scattered Clouds 1800 ft
Heat Index 81 °F
Dew Point 69 °F
Humidity 72%
Rainfall 0.02 in
Snow Depth Not available.
6:40 AM 6:21 PM
Waning Crescent, 10% visible
METAR TUPJ 231400Z COR 09010KT 9999 SCT018 28/23 Q1014 RMK A2996
Pressure 29.95 in
Visibility 6.2 miles
Clouds Scattered Clouds 1800 ft
Heat Index 81 °F
Dew Point 69 °F
Humidity 72%
Rainfall 0.02 in
Snow Depth Not available.
6:40 AM 6:21 PM
Waning Crescent, 10% visible
METAR TUPJ 231400Z COR 09010KT 9999 SCT018 28/23 Q1014 RMK A2996

Get Your Daily Forecast Email!

Thanks for signing up!

Be on the lookout for a verification email in your inbox.

You'll start receiving the daily forecast at 8 AM.

×

10-Day Weather Forecast

No radar image for this location.
×

Almanac

Astronomy

Feb. 23, 2017 Rise Set
Actual Time
Civil Twilight
Nautical Twilight
Astronomical Twilight
Moon
Length of Visible Light
Length of Day
Tomorrow will be .
, % of the Moon is Illuminated

Today's Extremes

Country Highs Country Lows

Community

WunderPhotos

Upload Photos

1,962,540 photos uploaded!

WunderBlog® & News

Nearby

Air Quality

  Air Quality AQ Index Pollutant
Not available.

Snow Depth

Station Depth Elevation

Earthquake Activity

City Distance Mag. Time & Date
Minimum magnitude displayed is 2.5.

Coastal Water Temperatures

Place Temperature

Stations

Nearby Weather Stations

Station Location Temp. Windchill Dew Point Humidity Wind Precip. Elev Updated Type